Аэропорт: Чебоксары. Чебоксары

ICAO: UWKS

METAR:
2022-01-28 08:00:00
UWKS 280800Z 19003MPS 9000 FEW013 M12/M14 Q1015 R06/850342 NOSIG RMK QFE746
METAR:
2022-01-28 04:39:00
TAF UWKS 280439Z 2806/2815 18003G08MPS 8000 -SN BKN020 TXM10/2812Z TNM15/2806Z TEMPO 2806/2814 BKN010